sensor_id;sensor_type;location;lat;lon;timestamp;pressure;altitude;pressure_sealevel;temperature;humidity
65534;BME280;53640;55.838;37.184;2023-11-22T00:01:52;99032.16;;;-10.20;54.08
65534;BME280;53640;55.838;37.184;2023-11-22T00:04:19;99056.72;;;-10.08;54.27
65534;BME280;53640;55.838;37.184;2023-11-22T00:06:46;99008.91;;;-10.25;53.86
65534;BME280;53640;55.838;37.184;2023-11-22T00:09:13;99099.81;;;-9.71;53.93
65534;BME280;53640;55.838;37.184;2023-11-22T00:11:40;99050.13;;;-10.00;54.06
65534;BME280;53640;55.838;37.184;2023-11-22T00:14:07;99039.44;;;-9.97;53.73
65534;BME280;53640;55.838;37.184;2023-11-22T00:16:33;98989.94;;;-10.28;53.75
65534;BME280;53640;55.838;37.184;2023-11-22T00:19:03;99115.41;;;-9.55;53.66
65534;BME280;53640;55.838;37.184;2023-11-22T00:21:31;99043.75;;;-9.96;53.37
65534;BME280;53640;55.838;37.184;2023-11-22T00:23:57;99008.06;;;-10.11;53.62
65534;BME280;53640;55.838;37.184;2023-11-22T00:26:24;99142.69;;;-9.31;53.79
65534;BME280;53640;55.838;37.184;2023-11-22T00:28:57;99147.63;;;-9.26;53.84
65534;BME280;53640;55.838;37.184;2023-11-22T00:31:27;99038.59;;;-9.97;53.53
65534;BME280;53640;55.838;37.184;2023-11-22T00:33:54;99033.47;;;-9.99;53.81
65534;BME280;53640;55.838;37.184;2023-11-22T00:36:20;98971.09;;;-10.33;53.38
65534;BME280;53640;55.838;37.184;2023-11-22T00:38:47;98973.09;;;-10.24;53.50
65534;BME280;53640;55.838;37.184;2023-11-22T00:41:15;99028.47;;;-9.89;53.42
65534;BME280;53640;55.838;37.184;2023-11-22T00:43:42;99150.94;;;-9.10;53.44
65534;BME280;53640;55.838;37.184;2023-11-22T00:46:08;99013.16;;;-9.95;53.46
65534;BME280;53640;55.838;37.184;2023-11-22T00:48:35;99024.84;;;-9.86;53.32
65534;BME280;53640;55.838;37.184;2023-11-22T00:51:03;99078.44;;;-9.51;53.32
65534;BME280;53640;55.838;37.184;2023-11-22T00:53:35;99142.06;;;-9.07;53.30
65534;BME280;53640;55.838;37.184;2023-11-22T00:56:05;99082.75;;;-9.50;53.18
65534;BME280;53640;55.838;37.184;2023-11-22T00:58:32;99114.31;;;-9.24;53.23
65534;BME280;53640;55.838;37.184;2023-11-22T01:00:59;99109.78;;;-9.22;53.22
65534;BME280;53640;55.838;37.184;2023-11-22T01:03:25;99008.94;;;-9.83;53.15
65534;BME280;53640;55.838;37.184;2023-11-22T01:05:52;99059.47;;;-9.54;53.09
65534;BME280;53640;55.838;37.184;2023-11-22T01:08:19;99039.38;;;-9.68;52.87
65534;BME280;53640;55.838;37.184;2023-11-22T01:10:45;99107.19;;;-9.22;52.58
65534;BME280;53640;55.838;37.184;2023-11-22T01:13:13;99042.94;;;-9.69;52.54
65534;BME280;53640;55.838;37.184;2023-11-22T01:15:43;99082.63;;;-9.48;52.53
65534;BME280;53640;55.838;37.184;2023-11-22T01:18:10;99028.00;;;-9.81;52.37
65534;BME280;53640;55.838;37.184;2023-11-22T01:20:37;99053.97;;;-9.64;52.39
65534;BME280;53640;55.838;37.184;2023-11-22T01:23:03;99111.53;;;-9.35;52.45
65534;BME280;53640;55.838;37.184;2023-11-22T01:25:30;99138.25;;;-9.16;52.47
65534;BME280;53640;55.838;37.184;2023-11-22T01:27:58;99126.59;;;-9.25;52.35
65534;BME280;53640;55.838;37.184;2023-11-22T01:30:25;99130.94;;;-9.25;52.53
65534;BME280;53640;55.838;37.184;2023-11-22T01:32:51;99147.22;;;-9.06;52.44
65534;BME280;53640;55.838;37.184;2023-11-22T01:35:18;99149.72;;;-9.04;52.62
65534;BME280;53640;55.838;37.184;2023-11-22T01:37:44;99106.19;;;-9.34;52.39
65534;BME280;53640;55.838;37.184;2023-11-22T01:40:12;99105.63;;;-9.25;52.50
65534;BME280;53640;55.838;37.184;2023-11-22T01:42:39;99108.31;;;-9.26;52.29
65534;BME280;53640;55.838;37.184;2023-11-22T01:45:08;99088.16;;;-9.38;52.24
65534;BME280;53640;55.838;37.184;2023-11-22T01:47:36;99143.44;;;-9.02;52.16
65534;BME280;53640;55.838;37.184;2023-11-22T01:50:06;99134.09;;;-9.06;52.29
65534;BME280;53640;55.838;37.184;2023-11-22T01:52:34;99154.47;;;-8.97;52.26
65534;BME280;53640;55.838;37.184;2023-11-22T01:55:02;99143.97;;;-8.97;52.23
65534;BME280;53640;55.838;37.184;2023-11-22T01:57:33;99135.78;;;-9.05;52.01
65534;BME280;53640;55.838;37.184;2023-11-22T02:00:04;99110.38;;;-9.17;52.26
65534;BME280;53640;55.838;37.184;2023-11-22T02:02:40;99129.78;;;-9.07;52.02
65534;BME280;53640;55.838;37.184;2023-11-22T02:05:09;99150.25;;;-8.99;51.93
65534;BME280;53640;55.838;37.184;2023-11-22T02:07:35;99065.78;;;-9.44;51.94
65534;BME280;53640;55.838;37.184;2023-11-22T02:10:06;99088.59;;;-9.32;52.08
65534;BME280;53640;55.838;37.184;2023-11-22T02:12:33;99121.91;;;-9.07;51.85
65534;BME280;53640;55.838;37.184;2023-11-22T02:15:00;99119.72;;;-9.13;51.88
65534;BME280;53640;55.838;37.184;2023-11-22T02:17:36;99101.94;;;-9.22;51.99
65534;BME280;53640;55.838;37.184;2023-11-22T02:20:03;99100.38;;;-9.25;51.68
65534;BME280;53640;55.838;37.184;2023-11-22T02:22:45;99056.28;;;-9.59;51.52
65534;BME280;53640;55.838;37.184;2023-11-22T02:25:14;99115.78;;;-9.20;51.98
65534;BME280;53640;55.838;37.184;2023-11-22T02:27:43;99147.75;;;-9.01;51.89
65534;BME280;53640;55.838;37.184;2023-11-22T02:30:09;99095.50;;;-9.31;51.82
65534;BME280;53640;55.838;37.184;2023-11-22T02:32:38;99137.09;;;-9.12;51.79
65534;BME280;53640;55.838;37.184;2023-11-22T02:35:11;99110.00;;;-9.25;51.69
65534;BME280;53640;55.838;37.184;2023-11-22T02:37:37;98989.78;;;-9.98;51.67
65534;BME280;53640;55.838;37.184;2023-11-22T02:40:16;99123.88;;;-9.10;51.92
65534;BME280;53640;55.838;37.184;2023-11-22T02:42:52;99091.94;;;-9.30;51.84
65534;BME280;53640;55.838;37.184;2023-11-22T02:45:27;99128.09;;;-9.08;51.70
65534;BME280;53640;55.838;37.184;2023-11-22T02:47:55;99122.41;;;-9.15;51.73
65534;BME280;53640;55.838;37.184;2023-11-22T02:50:21;99131.75;;;-9.10;51.75
65534;BME280;53640;55.838;37.184;2023-11-22T02:52:48;99080.38;;;-9.40;51.60
65534;BME280;53640;55.838;37.184;2023-11-22T02:55:14;99115.50;;;-9.16;51.63
65534;BME280;53640;55.838;37.184;2023-11-22T02:57:41;99149.97;;;-8.95;51.70
65534;BME280;53640;55.838;37.184;2023-11-22T03:00:09;99144.81;;;-8.96;51.49
65534;BME280;53640;55.838;37.184;2023-11-22T03:02:43;99069.09;;;-9.55;51.60
65534;BME280;53640;55.838;37.184;2023-11-22T03:05:09;99124.19;;;-9.15;51.59
65534;BME280;53640;55.838;37.184;2023-11-22T03:07:37;99130.84;;;-9.09;51.63
65534;BME280;53640;55.838;37.184;2023-11-22T03:10:04;99097.50;;;-9.34;51.75
65534;BME280;53640;55.838;37.184;2023-11-22T03:12:34;99130.56;;;-9.19;51.77
65534;BME280;53640;55.838;37.184;2023-11-22T03:15:00;99117.50;;;-9.33;51.40
65534;BME280;53640;55.838;37.184;2023-11-22T03:17:35;99102.44;;;-9.30;51.63
65534;BME280;53640;55.838;37.184;2023-11-22T03:20:05;99161.38;;;-8.96;51.56
65534;BME280;53640;55.838;37.184;2023-11-22T03:22:37;99123.38;;;-9.30;51.61
65534;BME280;53640;55.838;37.184;2023-11-22T03:25:04;99030.59;;;-9.81;51.64
65534;BME280;53640;55.838;37.184;2023-11-22T03:27:33;99160.97;;;-9.02;51.79
65534;BME280;53640;55.838;37.184;2023-11-22T03:30:04;99153.78;;;-9.13;51.76
65534;BME280;53640;55.838;37.184;2023-11-22T03:32:31;99096.31;;;-9.43;51.70
65534;BME280;53640;55.838;37.184;2023-11-22T03:35:03;99024.63;;;-9.83;51.51
65534;BME280;53640;55.838;37.184;2023-11-22T03:37:31;99020.19;;;-9.96;51.59
65534;BME280;53640;55.838;37.184;2023-11-22T03:40:00;99122.19;;;-9.24;51.85
65534;BME280;53640;55.838;37.184;2023-11-22T03:42:27;99164.19;;;-8.99;51.55
65534;BME280;53640;55.838;37.184;2023-11-22T03:44:54;99145.16;;;-9.15;51.61
65534;BME280;53640;55.838;37.184;2023-11-22T03:47:21;99014.94;;;-9.96;51.53
65534;BME280;53640;55.838;37.184;2023-11-22T03:49:48;99107.47;;;-9.27;51.60
65534;BME280;53640;55.838;37.184;2023-11-22T03:52:17;99111.72;;;-9.38;51.60
65534;BME280;53640;55.838;37.184;2023-11-22T03:54:43;99168.91;;;-9.04;51.68
65534;BME280;53640;55.838;37.184;2023-11-22T03:57:10;99143.69;;;-9.19;51.79
65534;BME280;53640;55.838;37.184;2023-11-22T03:59:40;99099.41;;;-9.51;51.91
65534;BME280;53640;55.838;37.184;2023-11-22T04:02:06;99151.16;;;-9.13;51.97
65534;BME280;53640;55.838;37.184;2023-11-22T04:04:33;99119.41;;;-9.35;51.59
65534;BME280;53640;55.838;37.184;2023-11-22T04:07:01;99152.94;;;-9.13;51.98
65534;BME280;53640;55.838;37.184;2023-11-22T04:09:27;99100.50;;;-9.41;51.83
65534;BME280;53640;55.838;37.184;2023-11-22T04:11:57;99051.72;;;-9.70;51.84
65534;BME280;53640;55.838;37.184;2023-11-22T04:14:24;99005.50;;;-9.98;51.99
65534;BME280;53640;55.838;37.184;2023-11-22T04:16:53;99079.03;;;-9.60;51.90
65534;BME280;53640;55.838;37.184;2023-11-22T04:19:20;99056.13;;;-9.71;51.85
65534;BME280;53640;55.838;37.184;2023-11-22T04:21:47;99119.28;;;-9.34;52.03
65534;BME280;53640;55.838;37.184;2023-11-22T04:24:15;99113.69;;;-9.42;51.85
65534;BME280;53640;55.838;37.184;2023-11-22T04:26:44;99097.81;;;-9.53;51.76
65534;BME280;53640;55.838;37.184;2023-11-22T04:29:12;99140.22;;;-9.20;51.95
65534;BME280;53640;55.838;37.184;2023-11-22T04:31:39;99099.00;;;-9.45;51.95
65534;BME280;53640;55.838;37.184;2023-11-22T04:34:05;99095.66;;;-9.47;51.88
65534;BME280;53640;55.838;37.184;2023-11-22T04:36:32;99117.31;;;-9.30;51.82
65534;BME280;53640;55.838;37.184;2023-11-22T04:38:58;99110.78;;;-9.37;51.89
65534;BME280;53640;55.838;37.184;2023-11-22T04:41:25;99118.44;;;-9.34;51.97
65534;BME280;53640;55.838;37.184;2023-11-22T04:43:52;99134.72;;;-9.29;51.78
65534;BME280;53640;55.838;37.184;2023-11-22T04:46:19;99083.06;;;-9.69;51.92
65534;BME280;53640;55.838;37.184;2023-11-22T04:48:46;99174.19;;;-9.18;51.89
65534;BME280;53640;55.838;37.184;2023-11-22T04:51:18;99181.66;;;-9.12;51.95
65534;BME280;53640;55.838;37.184;2023-11-22T04:53:46;99121.28;;;-9.52;52.16
65534;BME280;53640;55.838;37.184;2023-11-22T04:56:14;99172.69;;;-9.22;52.14
65534;BME280;53640;55.838;37.184;2023-11-22T04:58:40;99138.13;;;-9.42;52.07
65534;BME280;53640;55.838;37.184;2023-11-22T05:01:06;99144.94;;;-9.39;52.02
65534;BME280;53640;55.838;37.184;2023-11-22T05:03:39;99109.63;;;-9.60;52.16
65534;BME280;53640;55.838;37.184;2023-11-22T05:06:09;99151.56;;;-9.33;52.17
65534;BME280;53640;55.838;37.184;2023-11-22T05:08:35;99136.53;;;-9.44;52.03
65534;BME280;53640;55.838;37.184;2023-11-22T05:11:02;99135.69;;;-9.45;51.78
65534;BME280;53640;55.838;37.184;2023-11-22T05:13:29;99111.66;;;-9.51;51.66
65534;BME280;53640;55.838;37.184;2023-11-22T05:15:57;99166.44;;;-9.20;51.36
65534;BME280;53640;55.838;37.184;2023-11-22T05:18:23;99159.06;;;-9.27;51.12
65534;BME280;53640;55.838;37.184;2023-11-22T05:20:50;99117.19;;;-9.56;50.91
65534;BME280;53640;55.838;37.184;2023-11-22T05:23:19;99138.41;;;-9.46;50.96
65534;BME280;53640;55.838;37.184;2023-11-22T05:25:48;99192.47;;;-9.17;50.80
65534;BME280;53640;55.838;37.184;2023-11-22T05:28:15;99105.22;;;-9.74;50.57
65534;BME280;53640;55.838;37.184;2023-11-22T05:30:43;99160.97;;;-9.44;50.88
65534;BME280;53640;55.838;37.184;2023-11-22T05:33:10;99169.63;;;-9.29;50.71
65534;BME280;53640;55.838;37.184;2023-11-22T05:35:36;99092.34;;;-9.77;50.59
65534;BME280;53640;55.838;37.184;2023-11-22T05:38:03;99172.81;;;-9.24;50.65
65534;BME280;53640;55.838;37.184;2023-11-22T05:40:29;99176.22;;;-9.36;50.85
65534;BME280;53640;55.838;37.184;2023-11-22T05:42:56;99202.38;;;-9.22;50.85
65534;BME280;53640;55.838;37.184;2023-11-22T05:45:22;99141.31;;;-9.51;50.75
65534;BME280;53640;55.838;37.184;2023-11-22T05:47:50;99166.63;;;-9.37;50.83
65534;BME280;53640;55.838;37.184;2023-11-22T05:50:16;99148.44;;;-9.53;50.98
65534;BME280;53640;55.838;37.184;2023-11-22T05:52:43;99225.88;;;-9.06;50.81
65534;BME280;53640;55.838;37.184;2023-11-22T05:55:11;99036.19;;;-10.15;50.67
65534;BME280;53640;55.838;37.184;2023-11-22T05:57:41;99129.25;;;-9.53;50.88
65534;BME280;53640;55.838;37.184;2023-11-22T06:00:08;99177.22;;;-9.24;50.77
65534;BME280;53640;55.838;37.184;2023-11-22T06:02:36;99164.13;;;-9.38;50.59
65534;BME280;53640;55.838;37.184;2023-11-22T06:05:05;99227.06;;;-9.11;50.59
65534;BME280;53640;55.838;37.184;2023-11-22T06:08:13;99113.72;;;-9.71;50.73
65534;BME280;53640;55.838;37.184;2023-11-22T06:12:46;99221.72;;;-9.10;50.67
65534;BME280;53640;55.838;37.184;2023-11-22T06:16:27;99022.28;;;-10.44;50.59
65534;BME280;53640;55.838;37.184;2023-11-22T06:18:55;99216.53;;;-9.24;50.63
65534;BME280;53640;55.838;37.184;2023-11-22T06:21:30;99090.50;;;-10.04;50.50
65534;BME280;53640;55.838;37.184;2023-11-22T06:24:00;99131.06;;;-9.82;50.32
65534;BME280;53640;55.838;37.184;2023-11-22T06:26:30;99102.72;;;-9.90;50.36
65534;BME280;53640;55.838;37.184;2023-11-22T06:28:58;99098.97;;;-10.00;50.53
65534;BME280;53640;55.838;37.184;2023-11-22T06:31:37;99087.59;;;-9.99;50.45
65534;BME280;53640;55.838;37.184;2023-11-22T06:34:18;99120.22;;;-9.76;50.46
65534;BME280;53640;55.838;37.184;2023-11-22T06:36:49;99226.69;;;-9.05;50.54
65534;BME280;53640;55.838;37.184;2023-11-22T06:39:18;99152.72;;;-9.52;50.38
65534;BME280;53640;55.838;37.184;2023-11-22T06:42:01;99155.16;;;-9.49;50.27
65534;BME280;53640;55.838;37.184;2023-11-22T06:44:35;99089.94;;;-9.95;50.36
65534;BME280;53640;55.838;37.184;2023-11-22T06:47:01;99164.31;;;-9.56;50.34
65534;BME280;53640;55.838;37.184;2023-11-22T06:49:28;99152.19;;;-9.71;50.47
65534;BME280;53640;55.838;37.184;2023-11-22T06:51:55;99102.66;;;-10.03;50.44
65534;BME280;53640;55.838;37.184;2023-11-22T06:54:25;99159.03;;;-9.69;50.26
65534;BME280;53640;55.838;37.184;2023-11-22T06:56:51;99161.53;;;-9.67;49.99
65534;BME280;53640;55.838;37.184;2023-11-22T06:59:22;99151.72;;;-9.64;50.32
65534;BME280;53640;55.838;37.184;2023-11-22T07:01:51;99053.22;;;-10.22;50.38
65534;BME280;53640;55.838;37.184;2023-11-22T07:04:17;99213.16;;;-9.26;49.63
65534;BME280;53640;55.838;37.184;2023-11-22T07:06:44;99211.00;;;-9.34;49.48
65534;BME280;53640;55.838;37.184;2023-11-22T07:09:12;99183.13;;;-9.64;49.78
65534;BME280;53640;55.838;37.184;2023-11-22T07:11:41;99240.78;;;-9.21;49.82
65534;BME280;53640;55.838;37.184;2023-11-22T07:14:12;99232.81;;;-9.33;49.63
65534;BME280;53640;55.838;37.184;2023-11-22T07:16:40;99206.72;;;-9.49;49.64
65534;BME280;53640;55.838;37.184;2023-11-22T07:19:08;99239.66;;;-9.45;49.46
65534;BME280;53640;55.838;37.184;2023-11-22T07:21:35;99199.03;;;-9.67;49.90
65534;BME280;53640;55.838;37.184;2023-11-22T07:24:15;99192.69;;;-9.62;50.05
65534;BME280;53640;55.838;37.184;2023-11-22T07:26:45;99211.47;;;-9.56;48.67
65534;BME280;53640;55.838;37.184;2023-11-22T07:29:13;99206.34;;;-9.43;48.36
65534;BME280;53640;55.838;37.184;2023-11-22T07:31:40;99208.00;;;-9.28;49.05
65534;BME280;53640;55.838;37.184;2023-11-22T07:34:09;99276.81;;;-8.69;48.90
65534;BME280;53640;55.838;37.184;2023-11-22T07:36:41;99160.97;;;-9.02;49.01
65534;BME280;53640;55.838;37.184;2023-11-22T07:39:07;99167.03;;;-8.75;47.56
65534;BME280;53640;55.838;37.184;2023-11-22T07:41:37;99186.00;;;-8.44;46.48
65534;BME280;53640;55.838;37.184;2023-11-22T07:44:06;99166.50;;;-8.40;45.94
65534;BME280;53640;55.838;37.184;2023-11-22T07:46:35;99241.78;;;-7.62;45.70
65534;BME280;53640;55.838;37.184;2023-11-22T07:49:06;99204.81;;;-7.59;44.71
65534;BME280;53640;55.838;37.184;2023-11-22T07:51:32;99230.00;;;-7.31;43.55
65534;BME280;53640;55.838;37.184;2023-11-22T07:53:59;99226.56;;;-7.08;43.13
65534;BME280;53640;55.838;37.184;2023-11-22T07:56:25;99238.84;;;-6.83;42.96
65534;BME280;53640;55.838;37.184;2023-11-22T07:58:52;99263.38;;;-6.58;42.11
65534;BME280;53640;55.838;37.184;2023-11-22T08:01:19;99209.22;;;-6.74;41.73
65534;BME280;53640;55.838;37.184;2023-11-22T08:03:45;99222.09;;;-6.34;42.41
65534;BME280;53640;55.838;37.184;2023-11-22T08:06:12;99203.69;;;-6.23;40.95
65534;BME280;53640;55.838;37.184;2023-11-22T08:08:39;99200.53;;;-6.04;40.60
65534;BME280;53640;55.838;37.184;2023-11-22T08:11:06;99268.56;;;-5.51;40.16
65534;BME280;53640;55.838;37.184;2023-11-22T08:13:41;99230.09;;;-5.42;39.59
65534;BME280;53640;55.838;37.184;2023-11-22T08:16:18;99179.50;;;-5.47;39.38
65534;BME280;53640;55.838;37.184;2023-11-22T08:18:48;99226.22;;;-4.93;38.34
65534;BME280;53640;55.838;37.184;2023-11-22T08:21:18;99152.88;;;-5.22;38.38
65534;BME280;53640;55.838;37.184;2023-11-22T08:23:46;99197.16;;;-4.71;38.62
65534;BME280;53640;55.838;37.184;2023-11-22T08:26:16;99172.31;;;-4.68;38.40
65534;BME280;53640;55.838;37.184;2023-11-22T08:29:01;99115.63;;;-4.96;37.80
65534;BME280;53640;55.838;37.184;2023-11-22T08:31:30;99171.00;;;-4.42;37.73
65534;BME280;53640;55.838;37.184;2023-11-22T08:33:58;99175.59;;;-4.23;37.15
65534;BME280;53640;55.838;37.184;2023-11-22T08:36:47;99096.75;;;-4.60;36.31
65534;BME280;53640;55.838;37.184;2023-11-22T08:39:14;99126.03;;;-4.31;36.42
65534;BME280;53640;55.838;37.184;2023-11-22T08:41:44;99114.09;;;-4.25;36.44
65534;BME280;53640;55.838;37.184;2023-11-22T08:44:11;99159.81;;;-3.92;35.93
65534;BME280;53640;55.838;37.184;2023-11-22T08:46:41;99099.53;;;-4.40;36.03
65534;BME280;53640;55.838;37.184;2023-11-22T08:49:08;99182.25;;;-4.08;35.44
65534;BME280;53640;55.838;37.184;2023-11-22T08:51:34;99192.53;;;-4.25;36.40
65534;BME280;53640;55.838;37.184;2023-11-22T08:54:02;99238.25;;;-4.14;35.78
65534;BME280;53640;55.838;37.184;2023-11-22T08:56:32;99239.81;;;-4.43;36.67
65534;BME280;53640;55.838;37.184;2023-11-22T08:59:02;99147.13;;;-5.38;36.80
65534;BME280;53640;55.838;37.184;2023-11-22T09:01:31;99216.91;;;-5.31;37.53
65534;BME280;53640;55.838;37.184;2023-11-22T09:04:02;99206.34;;;-5.54;38.09
65534;BME280;53640;55.838;37.184;2023-11-22T09:06:29;99151.06;;;-6.00;38.45
65534;BME280;53640;55.838;37.184;2023-11-22T09:12:29;99067.91;;;-6.38;39.31
65534;BME280;53640;55.838;37.184;2023-11-22T09:15:35;99131.69;;;-5.65;38.88
65534;BME280;53640;55.838;37.184;2023-11-22T09:19:03;99098.47;;;-5.45;38.18
65534;BME280;53640;55.838;37.184;2023-11-22T09:22:04;99099.28;;;-5.22;37.56
65534;BME280;53640;55.838;37.184;2023-11-22T09:25:16;99103.69;;;-5.23;37.32
65534;BME280;53640;55.838;37.184;2023-11-22T09:28:17;99110.16;;;-5.16;37.56
65534;BME280;53640;55.838;37.184;2023-11-22T09:31:20;99078.84;;;-5.09;37.50
65534;BME280;53640;55.838;37.184;2023-11-22T09:33:59;99075.91;;;-4.95;37.13
65534;BME280;53640;55.838;37.184;2023-11-22T09:36:26;99117.88;;;-4.60;37.11
65534;BME280;53640;55.838;37.184;2023-11-22T09:38:53;99169.91;;;-4.39;36.91
65534;BME280;53640;55.838;37.184;2023-11-22T09:41:25;99136.31;;;-4.69;36.88
65534;BME280;53640;55.838;37.184;2023-11-22T09:43:56;99238.28;;;-4.25;36.99
65534;BME280;53640;55.838;37.184;2023-11-22T09:46:30;99050.53;;;-5.51;37.36
65534;BME280;53640;55.838;37.184;2023-11-22T09:49:04;99052.81;;;-5.57;37.71
65534;BME280;53640;55.838;37.184;2023-11-22T09:51:37;99097.97;;;-5.39;37.92
65534;BME280;53640;55.838;37.184;2023-11-22T09:54:06;99161.63;;;-5.21;37.86
65534;BME280;53640;55.838;37.184;2023-11-22T09:56:42;99102.31;;;-5.72;38.34
65534;BME280;53640;55.838;37.184;2023-11-22T09:59:18;99069.25;;;-5.99;38.75
65534;BME280;53640;55.838;37.184;2023-11-22T10:01:54;99119.69;;;-5.69;39.01
65534;BME280;53640;55.838;37.184;2023-11-22T10:04:32;99061.00;;;-6.05;39.29
65534;BME280;53640;55.838;37.184;2023-11-22T10:07:03;99152.78;;;-5.54;39.25
65534;BME280;53640;55.838;37.184;2023-11-22T10:09:30;99065.31;;;-6.04;39.64
65534;BME280;53640;55.838;37.184;2023-11-22T10:12:02;99146.19;;;-5.60;39.74
65534;BME280;53640;55.838;37.184;2023-11-22T10:14:31;99174.84;;;-5.44;39.47
65534;BME280;53640;55.838;37.184;2023-11-22T10:17:02;99116.47;;;-5.84;39.62
65534;BME280;53640;55.838;37.184;2023-11-22T10:19:29;99085.44;;;-6.03;39.61
65534;BME280;53640;55.838;37.184;2023-11-22T10:22:04;99039.06;;;-6.28;39.88
65534;BME280;53640;55.838;37.184;2023-11-22T10:24:32;99078.50;;;-6.04;39.96
65534;BME280;53640;55.838;37.184;2023-11-22T10:27:02;99164.16;;;-5.54;40.11
65534;BME280;53640;55.838;37.184;2023-11-22T10:29:30;99140.19;;;-5.62;40.14
65534;BME280;53640;55.838;37.184;2023-11-22T10:31:57;99149.31;;;-5.55;39.97
65534;BME280;53640;55.838;37.184;2023-11-22T10:34:24;99109.75;;;-5.77;40.05
65534;BME280;53640;55.838;37.184;2023-11-22T10:36:51;99174.94;;;-5.34;40.21
65534;BME280;53640;55.838;37.184;2023-11-22T10:39:20;99121.97;;;-5.65;39.70
65534;BME280;53640;55.838;37.184;2023-11-22T10:41:48;99087.69;;;-5.87;39.91
65534;BME280;53640;55.838;37.184;2023-11-22T10:44:20;99206.34;;;-5.09;39.61
65534;BME280;53640;55.838;37.184;2023-11-22T10:46:51;99058.72;;;-6.10;39.47
65534;BME280;53640;55.838;37.184;2023-11-22T10:49:20;99069.84;;;-6.17;39.59
65534;BME280;53640;55.838;37.184;2023-11-22T10:51:51;99138.97;;;-5.91;39.89
65534;BME280;53640;55.838;37.184;2023-11-22T10:54:22;99104.09;;;-6.17;39.99
65534;BME280;53640;55.838;37.184;2023-11-22T10:56:55;99076.63;;;-6.49;40.26
65534;BME280;53640;55.838;37.184;2023-11-22T10:59:30;99220.47;;;-5.66;40.35
65534;BME280;53640;55.838;37.184;2023-11-22T11:02:02;99135.47;;;-6.14;40.75
65534;BME280;53640;55.838;37.184;2023-11-22T11:04:34;99158.59;;;-6.07;40.60
65534;BME280;53640;55.838;37.184;2023-11-22T11:07:03;99161.38;;;-5.97;40.78
65534;BME280;53640;55.838;37.184;2023-11-22T11:09:30;99198.78;;;-5.69;40.85
65534;BME280;53640;55.838;37.184;2023-11-22T11:12:00;99141.81;;;-6.17;40.77
65534;BME280;53640;55.838;37.184;2023-11-22T11:14:30;99146.00;;;-6.14;40.53
65534;BME280;53640;55.838;37.184;2023-11-22T11:16:57;99148.50;;;-6.24;40.36
65534;BME280;53640;55.838;37.184;2023-11-22T11:19:25;99093.31;;;-6.72;40.00
65534;BME280;53640;55.838;37.184;2023-11-22T11:21:52;99091.38;;;-7.05;40.50
65534;BME280;53640;55.838;37.184;2023-11-22T11:24:20;99188.81;;;-6.59;40.98
65534;BME280;53640;55.838;37.184;2023-11-22T11:26:49;99132.63;;;-7.06;41.37
65534;BME280;53640;55.838;37.184;2023-11-22T11:29:34;99223.72;;;-6.68;41.76
65534;BME280;53640;55.838;37.184;2023-11-22T11:32:03;99211.56;;;-6.82;41.99
65534;BME280;53640;55.838;37.184;2023-11-22T11:34:50;99234.91;;;-6.77;42.08
65534;BME280;53640;55.838;37.184;2023-11-22T11:37:20;99176.19;;;-7.14;42.18
65534;BME280;53640;55.838;37.184;2023-11-22T11:39:48;99198.25;;;-7.04;42.31
65534;BME280;53640;55.838;37.184;2023-11-22T11:42:15;99150.28;;;-7.45;42.46
65534;BME280;53640;55.838;37.184;2023-11-22T11:47:41;99191.59;;;-7.34;42.61
65534;BME280;53640;55.838;37.184;2023-11-22T11:50:07;99227.75;;;-7.12;42.54
65534;BME280;53640;55.838;37.184;2023-11-22T11:52:34;99229.88;;;-7.17;42.71
65534;BME280;53640;55.838;37.184;2023-11-22T11:55:07;99086.06;;;-8.03;42.95
65534;BME280;53640;55.838;37.184;2023-11-22T11:57:39;99145.59;;;-7.65;43.22
65534;BME280;53640;55.838;37.184;2023-11-22T12:00:13;99061.91;;;-8.21;43.04
65534;BME280;53640;55.838;37.184;2023-11-22T12:02:40;99206.03;;;-7.39;43.16
65534;BME280;53640;55.838;37.184;2023-11-22T12:05:08;99141.84;;;-7.74;43.01
65534;BME280;53640;55.838;37.184;2023-11-22T12:07:36;99157.38;;;-7.58;43.06
65534;BME280;53640;55.838;37.184;2023-11-22T12:10:03;99180.78;;;-7.42;43.24
65534;BME280;53640;55.838;37.184;2023-11-22T12:12:33;99175.25;;;-7.63;43.29
65534;BME280;53640;55.838;37.184;2023-11-22T12:15:01;99135.56;;;-7.97;43.20
65534;BME280;53640;55.838;37.184;2023-11-22T12:17:27;99261.44;;;-7.42;43.43
65534;BME280;53640;55.838;37.184;2023-11-22T12:20:10;99084.59;;;-8.58;43.46
65534;BME280;53640;55.838;37.184;2023-11-22T12:22:40;99201.22;;;-7.97;43.78
65534;BME280;53640;55.838;37.184;2023-11-22T12:25:09;99164.63;;;-8.25;43.94
65534;BME280;53640;55.838;37.184;2023-11-22T12:27:42;99078.69;;;-8.74;43.68
65534;BME280;53640;55.838;37.184;2023-11-22T12:30:32;99221.59;;;-8.00;43.86
65534;BME280;53640;55.838;37.184;2023-11-22T12:33:06;99260.91;;;-7.73;43.74
65534;BME280;53640;55.838;37.184;2023-11-22T12:35:36;99109.84;;;-8.82;43.79
65534;BME280;53640;55.838;37.184;2023-11-22T12:38:06;99161.94;;;-8.51;43.87
65534;BME280;53640;55.838;37.184;2023-11-22T12:40:42;99163.53;;;-8.61;44.08
65534;BME280;53640;55.838;37.184;2023-11-22T12:43:13;99129.53;;;-8.89;43.92
65534;BME280;53640;55.838;37.184;2023-11-22T12:45:42;99267.16;;;-8.01;44.15
65534;BME280;53640;55.838;37.184;2023-11-22T12:48:24;99181.94;;;-8.75;44.55
65534;BME280;53640;55.838;37.184;2023-11-22T12:50:53;99096.03;;;-9.26;44.30
65534;BME280;53640;55.838;37.184;2023-11-22T12:53:22;99129.97;;;-9.10;44.44
65534;BME280;53640;55.838;37.184;2023-11-22T12:55:52;99108.78;;;-9.20;44.32
65534;BME280;53640;55.838;37.184;2023-11-22T12:58:22;99107.75;;;-9.17;44.59
65534;BME280;53640;55.838;37.184;2023-11-22T13:00:52;99167.13;;;-8.76;44.51
65534;BME280;53640;55.838;37.184;2023-11-22T13:03:25;99272.00;;;-8.08;44.74
65534;BME280;53640;55.838;37.184;2023-11-22T13:05:52;99142.84;;;-8.93;44.30
65534;BME280;53640;55.838;37.184;2023-11-22T13:08:21;99157.19;;;-8.71;44.38
65534;BME280;53640;55.838;37.184;2023-11-22T13:10:55;99141.16;;;-8.94;44.69
65534;BME280;53640;55.838;37.184;2023-11-22T13:13:25;99091.25;;;-9.19;44.47
65534;BME280;53640;55.838;37.184;2023-11-22T13:15:57;99284.56;;;-8.13;44.86